createdAt,value
2022-08-26T00:01:53.787Z,13.88
2022-08-26T00:04:22.101Z,14.10
2022-08-26T00:06:49.042Z,14.07
2022-08-26T00:09:16.157Z,15.07
2022-08-26T00:11:45.380Z,15.20
2022-08-26T00:14:13.944Z,13.52
2022-08-26T00:16:47.089Z,15.27
2022-08-26T00:19:15.312Z,13.40
2022-08-26T00:21:42.049Z,11.18
2022-08-26T00:24:08.865Z,13.20
2022-08-26T00:26:36.245Z,12.57
2022-08-26T00:29:03.097Z,11.35
2022-08-26T00:31:32.005Z,12.35
2022-08-26T00:33:59.200Z,13.70
2022-08-26T00:36:29.702Z,13.63
2022-08-26T00:38:57.697Z,17.02
2022-08-26T00:41:24.424Z,13.88
2022-08-26T00:43:51.456Z,15.48
2022-08-26T00:46:25.795Z,13.45
2022-08-26T00:48:58.189Z,13.20
2022-08-26T00:51:29.868Z,15.45
2022-08-26T00:56:43.579Z,15.13
2022-08-26T00:59:13.154Z,14.00
2022-08-26T01:01:42.575Z,15.85
2022-08-26T01:04:15.672Z,15.20
2022-08-26T01:06:42.654Z,18.48
2022-08-26T01:09:11.870Z,15.70
2022-08-26T01:11:39.235Z,15.95
2022-08-26T01:14:07.058Z,14.15
2022-08-26T01:16:35.626Z,15.65
2022-08-26T01:19:28.756Z,15.05
2022-08-26T01:22:05.334Z,15.60
2022-08-26T01:24:32.314Z,17.25
2022-08-26T01:27:06.657Z,18.88
2022-08-26T01:29:38.108Z,15.45
2022-08-26T01:32:07.081Z,16.67
2022-08-26T01:34:37.549Z,13.93
2022-08-26T01:37:15.605Z,14.63
2022-08-26T01:39:44.369Z,14.82
2022-08-26T01:42:14.662Z,17.05
2022-08-26T01:44:46.247Z,15.27
2022-08-26T01:47:17.991Z,13.80
2022-08-26T01:49:48.279Z,13.93
2022-08-26T01:52:23.493Z,18.20
2022-08-26T01:54:57.414Z,15.63
2022-08-26T01:57:25.384Z,16.80
2022-08-26T01:59:56.329Z,14.50
2022-08-26T02:02:24.594Z,15.77
2022-08-26T02:04:58.387Z,16.52
2022-08-26T02:07:26.851Z,16.02
2022-08-26T02:09:54.688Z,15.18
2022-08-26T02:12:21.582Z,12.55
2022-08-26T02:15:05.731Z,15.52
2022-08-26T02:17:37.886Z,15.07
2022-08-26T02:20:06.506Z,12.85
2022-08-26T02:22:41.355Z,15.15
2022-08-26T02:25:25.170Z,14.00
2022-08-26T02:27:52.858Z,15.32
2022-08-26T02:30:24.328Z,16.95
2022-08-26T02:32:53.186Z,13.43
2022-08-26T02:35:22.393Z,12.48
2022-08-26T02:37:50.441Z,16.30
2022-08-26T02:40:21.572Z,14.63
2022-08-26T02:42:48.901Z,15.48
2022-08-26T02:45:16.758Z,12.88
2022-08-26T02:47:51.621Z,18.67
2022-08-26T02:50:19.783Z,13.40
2022-08-26T02:52:46.554Z,18.17
2022-08-26T02:55:13.247Z,17.30
2022-08-26T02:57:39.929Z,15.60
2022-08-26T03:00:09.165Z,16.30
2022-08-26T03:02:35.817Z,12.52
2022-08-26T03:05:02.976Z,15.85
2022-08-26T03:07:30.376Z,16.98
2022-08-26T03:09:58.769Z,14.05
2022-08-26T03:12:25.786Z,16.88
2022-08-26T03:14:52.954Z,17.48
2022-08-26T03:17:19.645Z,19.45
2022-08-26T03:19:46.314Z,15.57
2022-08-26T03:22:14.527Z,18.73
2022-08-26T03:24:46.053Z,18.83
2022-08-26T03:27:13.387Z,19.48
2022-08-26T03:30:00.226Z,19.35
2022-08-26T03:32:28.098Z,17.33
2022-08-26T03:34:56.517Z,21.13
2022-08-26T03:37:23.458Z,21.02
2022-08-26T03:39:50.277Z,21.58
2022-08-26T03:42:17.732Z,18.73
2022-08-26T03:44:48.897Z,18.33
2022-08-26T03:47:15.914Z,14.75
2022-08-26T03:49:42.970Z,21.75
2022-08-26T03:52:10.602Z,18.17
2022-08-26T03:54:37.451Z,17.20
2022-08-26T03:57:04.381Z,16.15
2022-08-26T03:59:31.923Z,15.02
2022-08-26T04:01:58.793Z,17.85
2022-08-26T04:04:25.887Z,19.38
2022-08-26T04:06:59.592Z,16.90
2022-08-26T04:09:27.665Z,19.80
2022-08-26T04:11:55.634Z,16.58
2022-08-26T04:14:26.191Z,20.00
2022-08-26T04:16:55.474Z,17.02
2022-08-26T04:19:23.821Z,15.68
2022-08-26T04:21:53.304Z,14.60
2022-08-26T04:24:22.682Z,18.83
2022-08-26T04:26:49.779Z,17.63
2022-08-26T04:29:19.636Z,14.98
2022-08-26T04:31:50.242Z,16.67
2022-08-26T04:34:24.274Z,19.02
2022-08-26T04:36:54.050Z,19.48
2022-08-26T04:39:20.861Z,18.27
2022-08-26T04:41:48.682Z,19.30
2022-08-26T04:44:18.049Z,21.38
2022-08-26T04:46:44.864Z,17.95
2022-08-26T04:49:11.968Z,18.30
2022-08-26T04:51:38.833Z,18.95
2022-08-26T04:54:07.213Z,21.17
2022-08-26T04:56:40.271Z,17.33
2022-08-26T04:59:16.859Z,18.95
2022-08-26T05:01:49.681Z,15.20
2022-08-26T05:06:46.962Z,18.92
2022-08-26T05:09:15.306Z,18.63
2022-08-26T05:11:42.190Z,21.40
2022-08-26T05:14:09.725Z,15.05
2022-08-26T05:16:36.709Z,17.25
2022-08-26T05:19:03.687Z,17.65
2022-08-26T05:21:31.379Z,22.58
2022-08-26T05:23:58.512Z,19.35
2022-08-26T05:26:28.418Z,17.90
2022-08-26T05:28:56.703Z,16.00
2022-08-26T05:31:26.691Z,14.45
2022-08-26T05:33:53.933Z,17.75
2022-08-26T05:36:23.120Z,18.20
2022-08-26T05:38:50.128Z,18.17
2022-08-26T05:41:18.603Z,17.33
2022-08-26T05:43:45.761Z,17.73
2022-08-26T05:46:13.477Z,19.38
2022-08-26T05:48:44.213Z,17.88
2022-08-26T05:51:12.632Z,15.60
2022-08-26T05:53:40.979Z,18.08
2022-08-26T05:56:12.059Z,20.63
2022-08-26T05:58:40.636Z,18.95
2022-08-26T06:01:12.372Z,19.95
2022-08-26T06:03:42.631Z,17.10
2022-08-26T06:06:15.669Z,17.75
2022-08-26T06:08:47.453Z,19.55
2022-08-26T06:11:19.079Z,21.42
2022-08-26T06:13:46.867Z,21.40
2022-08-26T06:16:17.931Z,25.73
2022-08-26T06:18:46.565Z,20.17
2022-08-26T06:21:19.242Z,25.67
2022-08-26T06:24:06.723Z,20.23
2022-08-26T06:26:35.705Z,17.23
2022-08-26T06:29:05.399Z,23.90
2022-08-26T06:31:34.779Z,19.75
2022-08-26T06:34:03.701Z,20.38
2022-08-26T06:36:34.929Z,22.52
2022-08-26T06:39:10.132Z,15.80
2022-08-26T06:41:42.775Z,18.05
2022-08-26T06:44:16.961Z,20.02
2022-08-26T06:46:44.270Z,19.20
2022-08-26T06:49:12.530Z,25.35
2022-08-26T06:51:40.944Z,23.23
2022-08-26T06:54:08.866Z,23.00
2022-08-26T06:56:42.839Z,21.67
2022-08-26T06:59:11.414Z,21.58
2022-08-26T07:01:44.931Z,18.23
2022-08-26T07:04:15.617Z,19.88
2022-08-26T07:06:52.373Z,19.27
2022-08-26T07:09:24.790Z,24.55
2022-08-26T07:11:52.794Z,17.55
2022-08-26T07:14:21.481Z,18.90
2022-08-26T07:16:50.476Z,16.63
2022-08-26T07:19:18.995Z,17.45
2022-08-26T07:21:57.535Z,20.33
2022-08-26T07:24:24.299Z,15.18
2022-08-26T07:26:59.543Z,19.35
2022-08-26T07:29:26.307Z,18.25
2022-08-26T07:31:53.605Z,19.88
2022-08-26T07:34:24.162Z,16.55
2022-08-26T07:36:55.277Z,13.55
2022-08-26T07:39:22.557Z,15.15
2022-08-26T07:41:49.637Z,16.70
2022-08-26T07:44:16.778Z,16.38
2022-08-26T07:46:44.229Z,12.30
2022-08-26T07:49:13.673Z,15.80
2022-08-26T07:51:41.467Z,17.00
2022-08-26T07:54:08.177Z,16.67
2022-08-26T07:56:35.379Z,19.40
2022-08-26T07:59:04.003Z,16.20
2022-08-26T08:01:41.456Z,15.45
2022-08-26T08:04:14.109Z,17.02
2022-08-26T08:06:41.787Z,16.70
2022-08-26T08:09:12.400Z,17.48
2022-08-26T08:11:39.222Z,19.27
2022-08-26T08:14:08.565Z,14.32
2022-08-26T08:16:37.259Z,15.70
2022-08-26T08:19:05.852Z,12.85
2022-08-26T08:21:32.611Z,14.00
2022-08-26T08:23:59.897Z,12.30
2022-08-26T08:26:27.208Z,13.70
2022-08-26T08:28:55.825Z,12.75
2022-08-26T08:31:56.157Z,8.35
2022-08-26T08:34:19.316Z,13.45
2022-08-26T08:36:48.741Z,12.73
2022-08-26T08:39:17.186Z,13.55
2022-08-26T08:42:06.037Z,11.23
2022-08-26T08:44:33.823Z,11.18
2022-08-26T08:47:20.759Z,10.85
2022-08-26T08:49:48.098Z,11.30
2022-08-26T08:52:25.540Z,10.70
2022-08-26T08:54:54.452Z,11.20
2022-08-26T08:57:31.933Z,10.00
2022-08-26T09:00:11.950Z,9.10
2022-08-26T09:02:46.371Z,11.13
2022-08-26T09:05:28.070Z,13.88
2022-08-26T09:08:06.596Z,11.73
2022-08-26T09:10:39.804Z,11.40
2022-08-26T09:13:25.404Z,11.68
2022-08-26T09:16:20.281Z,9.70
2022-08-26T09:18:55.062Z,10.35
2022-08-26T09:21:25.279Z,8.85
2022-08-26T09:23:55.714Z,10.57
2022-08-26T09:26:29.177Z,11.70
2022-08-26T09:29:08.866Z,8.63
2022-08-26T09:31:39.196Z,12.43
2022-08-26T09:34:22.783Z,14.48
2022-08-26T09:36:58.600Z,14.02
2022-08-26T09:39:28.210Z,9.35
2022-08-26T09:42:02.918Z,11.52
2022-08-26T09:44:29.897Z,9.48
2022-08-26T09:47:02.015Z,10.23
2022-08-26T09:49:39.844Z,12.23
2022-08-26T09:52:17.632Z,12.85
2022-08-26T09:54:57.268Z,12.27
2022-08-26T09:57:29.071Z,7.97
2022-08-26T09:59:56.317Z,7.00
2022-08-26T10:02:32.203Z,7.28
2022-08-26T10:05:04.453Z,12.82
2022-08-26T10:07:50.870Z,11.73
2022-08-26T10:10:20.057Z,14.63
2022-08-26T10:12:58.889Z,12.52
2022-08-26T10:15:27.827Z,7.35
2022-08-26T10:18:24.760Z,10.02
2022-08-26T10:21:09.754Z,10.70
2022-08-26T10:23:58.269Z,14.93
2022-08-26T10:26:28.209Z,10.38
2022-08-26T10:29:08.914Z,9.77
2022-08-26T10:31:41.045Z,16.70
2022-08-26T10:34:12.529Z,12.07
2022-08-26T10:37:14.093Z,10.07
2022-08-26T10:40:07.635Z,9.93
2022-08-26T10:42:39.186Z,14.18
2022-08-26T10:45:19.811Z,11.32
2022-08-26T10:47:54.224Z,9.10
2022-08-26T10:50:37.302Z,13.70
2022-08-26T10:53:44.297Z,14.38
2022-08-26T10:56:29.516Z,12.07
2022-08-26T10:59:03.915Z,14.50
2022-08-26T11:01:43.287Z,8.80
2022-08-26T11:04:31.687Z,9.77
2022-08-26T11:07:39.684Z,11.40
2022-08-26T11:10:12.922Z,9.80
2022-08-26T11:12:39.544Z,10.13
2022-08-26T11:15:34.250Z,12.30
2022-08-26T11:18:04.257Z,10.02
2022-08-26T11:20:37.046Z,13.98
2022-08-26T11:23:24.118Z,12.15
2022-08-26T11:25:57.047Z,10.93
2022-08-26T11:28:44.791Z,21.35
2022-08-26T11:31:31.783Z,12.95
2022-08-26T11:34:03.563Z,11.90
2022-08-26T11:36:55.260Z,10.35
2022-08-26T11:39:29.456Z,20.58
2022-08-26T11:42:23.677Z,13.38
2022-08-26T11:44:57.951Z,14.18
2022-08-26T11:47:30.583Z,9.10
2022-08-26T11:50:13.402Z,10.93
2022-08-26T11:52:40.118Z,10.40
2022-08-26T11:55:12.124Z,10.95
2022-08-26T11:57:46.059Z,6.75
2022-08-26T12:00:26.545Z,15.50
2022-08-26T12:02:55.619Z,10.70
2022-08-26T12:05:38.295Z,11.70
2022-08-26T12:08:11.375Z,11.90
2022-08-26T12:10:38.423Z,7.85
2022-08-26T12:13:07.682Z,10.50
2022-08-26T12:15:35.826Z,12.90
2022-08-26T12:18:29.005Z,8.52
2022-08-26T12:20:58.687Z,11.15
2022-08-26T12:23:36.807Z,10.95
2022-08-26T12:26:29.489Z,11.32
2022-08-26T12:28:56.135Z,9.77
2022-08-26T12:31:35.085Z,8.82
2022-08-26T12:34:05.943Z,13.38
2022-08-26T12:36:37.810Z,7.97
2022-08-26T12:39:08.751Z,9.15
2022-08-26T12:41:55.749Z,9.82
2022-08-26T12:44:32.025Z,8.75
2022-08-26T12:47:20.428Z,10.20
2022-08-26T12:50:01.129Z,10.60
2022-08-26T12:52:30.408Z,9.23
2022-08-26T12:55:02.514Z,10.05
2022-08-26T12:57:36.030Z,7.78
2022-08-26T13:00:35.774Z,8.32
2022-08-26T13:03:03.548Z,8.75
2022-08-26T13:05:33.990Z,8.30
2022-08-26T13:08:25.878Z,12.27
2022-08-26T13:11:10.337Z,7.32
2022-08-26T13:13:37.525Z,11.02
2022-08-26T13:16:05.635Z,9.52
2022-08-26T13:18:32.705Z,9.55
2022-08-26T13:20:59.474Z,9.70
2022-08-26T13:23:26.230Z,9.80
2022-08-26T13:25:52.929Z,14.02
2022-08-26T13:28:19.753Z,10.05
2022-08-26T13:30:48.121Z,9.68
2022-08-26T13:33:16.757Z,8.05
2022-08-26T13:35:45.348Z,8.40
2022-08-26T13:38:20.588Z,8.15
2022-08-26T13:41:00.729Z,9.15
2022-08-26T13:43:27.729Z,11.05
2022-08-26T13:45:54.868Z,8.73
2022-08-26T13:48:23.591Z,12.20
2022-08-26T13:50:50.717Z,49.20
2022-08-26T13:53:18.801Z,86.25
2022-08-26T13:55:45.998Z,22.40
2022-08-26T13:58:13.672Z,12.07
2022-08-26T14:00:41.383Z,12.02
2022-08-26T14:03:13.090Z,8.00
2022-08-26T14:05:40.363Z,10.15
2022-08-26T14:08:07.496Z,9.35
2022-08-26T14:10:34.616Z,10.68
2022-08-26T14:13:01.393Z,10.02
2022-08-26T14:15:29.226Z,10.52
2022-08-26T14:17:56.056Z,9.48
2022-08-26T14:20:27.225Z,10.20
2022-08-26T14:23:13.138Z,10.48
2022-08-26T14:25:41.404Z,16.20
2022-08-26T14:28:08.221Z,23.70
2022-08-26T14:30:35.407Z,8.70
2022-08-26T14:33:02.218Z,11.45
2022-08-26T14:35:30.705Z,11.32
2022-08-26T14:37:58.132Z,14.20
2022-08-26T14:40:29.523Z,9.50
2022-08-26T14:42:58.872Z,11.63
2022-08-26T14:45:27.900Z,9.65
2022-08-26T14:47:56.743Z,9.15
2022-08-26T14:50:26.132Z,9.38
2022-08-26T14:53:11.178Z,12.18
2022-08-26T14:55:40.703Z,18.85
2022-08-26T14:58:07.651Z,11.73
2022-08-26T15:00:34.844Z,10.25
2022-08-26T15:03:01.959Z,10.63
2022-08-26T15:05:28.852Z,9.30
2022-08-26T15:07:55.700Z,9.93
2022-08-26T15:10:22.971Z,11.00
2022-08-26T15:12:49.804Z,11.35
2022-08-26T15:15:18.600Z,9.38
2022-08-26T15:17:45.537Z,29.23
2022-08-26T15:20:12.828Z,40.67
2022-08-26T15:22:40.039Z,9.60
2022-08-26T15:25:07.639Z,12.45
2022-08-26T15:27:34.365Z,11.07
2022-08-26T15:30:13.769Z,10.15
2022-08-26T15:32:40.555Z,9.43
2022-08-26T15:35:09.227Z,12.07
2022-08-26T15:37:36.318Z,11.13
2022-08-26T15:40:03.903Z,13.77
2022-08-26T15:42:30.746Z,12.55
2022-08-26T15:44:57.523Z,10.77
2022-08-26T15:47:24.503Z,10.75
2022-08-26T15:49:51.162Z,9.88
2022-08-26T15:52:19.551Z,9.73
2022-08-26T15:54:46.229Z,9.48
2022-08-26T15:57:15.314Z,10.82
2022-08-26T15:59:43.263Z,10.07
2022-08-26T16:02:10.641Z,11.93
2022-08-26T16:04:37.343Z,11.00
2022-08-26T16:07:04.414Z,13.85
2022-08-26T16:09:31.222Z,11.13
2022-08-26T16:11:58.152Z,11.60
2022-08-26T16:14:25.715Z,10.32
2022-08-26T16:16:52.566Z,16.98
2022-08-26T16:19:19.398Z,11.65
2022-08-26T16:21:46.498Z,9.32
2022-08-26T16:24:14.164Z,14.20
2022-08-26T16:26:42.552Z,13.25
2022-08-26T16:29:12.374Z,12.40
2022-08-26T16:31:39.369Z,9.38
2022-08-26T16:34:07.331Z,11.30
2022-08-26T16:36:34.933Z,11.68
2022-08-26T16:39:01.783Z,13.57
2022-08-26T16:41:30.871Z,14.80
2022-08-26T16:43:58.112Z,9.70
2022-08-26T16:46:26.334Z,12.15
2022-08-26T16:48:54.593Z,13.00
2022-08-26T16:51:23.086Z,11.63
2022-08-26T16:53:50.830Z,9.55
2022-08-26T16:56:24.120Z,14.63
2022-08-26T16:59:00.608Z,10.48
2022-08-26T17:01:27.374Z,13.18
2022-08-26T17:03:54.358Z,10.00
2022-08-26T17:06:21.084Z,13.23
2022-08-26T17:08:47.948Z,11.77
2022-08-26T17:11:15.329Z,12.38
2022-08-26T17:13:42.172Z,12.10
2022-08-26T17:16:10.950Z,10.63
2022-08-26T17:18:38.206Z,13.20
2022-08-26T17:21:10.234Z,11.98
2022-08-26T17:23:38.036Z,15.45
2022-08-26T17:26:05.368Z,12.25
2022-08-26T17:28:32.315Z,14.27
2022-08-26T17:31:00.323Z,15.25
2022-08-26T17:33:28.674Z,11.65
2022-08-26T17:35:56.050Z,14.88
2022-08-26T17:38:22.914Z,14.43
2022-08-26T17:40:50.180Z,19.33
2022-08-26T17:43:17.860Z,12.20
2022-08-26T17:45:44.652Z,13.15
2022-08-26T17:48:12.234Z,14.80
2022-08-26T17:50:41.300Z,10.25
2022-08-26T17:53:08.461Z,11.50
2022-08-26T17:55:41.862Z,9.30
2022-08-26T17:58:12.254Z,12.55
2022-08-26T18:00:44.745Z,14.13
2022-08-26T18:03:11.982Z,11.02
2022-08-26T18:05:38.745Z,11.77
2022-08-26T18:08:05.545Z,12.00
2022-08-26T18:10:32.620Z,9.57
2022-08-26T18:12:59.399Z,12.80
2022-08-26T18:15:26.144Z,8.52
2022-08-26T18:17:53.362Z,9.23
2022-08-26T18:20:20.703Z,12.65
2022-08-26T18:22:48.097Z,8.35
2022-08-26T18:25:16.620Z,8.05
2022-08-26T18:27:44.588Z,5.93
2022-08-26T18:30:16.796Z,8.07
2022-08-26T18:32:44.257Z,7.78
2022-08-26T18:35:11.955Z,14.85
2022-08-26T18:37:39.082Z,14.77
2022-08-26T18:40:08.587Z,11.45
2022-08-26T18:42:35.485Z,11.27
2022-08-26T18:45:03.162Z,14.70
2022-08-26T18:47:31.224Z,13.77
2022-08-26T18:49:57.941Z,13.57
2022-08-26T18:52:24.858Z,13.07
2022-08-26T18:54:51.620Z,11.18
2022-08-26T18:57:18.332Z,12.88
2022-08-26T18:59:45.015Z,10.27
2022-08-26T19:02:11.970Z,9.85
2022-08-26T19:04:39.202Z,7.78
2022-08-26T19:07:06.457Z,11.13
2022-08-26T19:09:33.774Z,7.63
2022-08-26T19:12:01.639Z,11.30
2022-08-26T19:14:28.676Z,8.98
2022-08-26T19:16:55.586Z,8.68
2022-08-26T19:19:25.629Z,10.98
2022-08-26T19:21:52.644Z,8.65
2022-08-26T19:24:20.316Z,9.02
2022-08-26T19:26:59.102Z,7.28
2022-08-26T19:29:29.719Z,10.00
2022-08-26T19:31:56.709Z,6.30
2022-08-26T19:34:24.157Z,7.65
2022-08-26T19:36:53.247Z,9.40
2022-08-26T19:39:21.145Z,8.15
2022-08-26T19:41:47.975Z,6.93
2022-08-26T19:44:53.076Z,7.25
2022-08-26T19:47:19.791Z,6.22
2022-08-26T19:49:46.473Z,6.55
2022-08-26T19:52:13.974Z,8.68
2022-08-26T19:54:40.999Z,6.35
2022-08-26T19:57:08.084Z,7.85
2022-08-26T19:59:36.260Z,10.00
2022-08-26T20:02:08.484Z,8.10
2022-08-26T20:04:37.087Z,10.02
2022-08-26T20:07:05.631Z,8.35
2022-08-26T20:09:34.147Z,8.98
2022-08-26T20:12:02.459Z,7.93
2022-08-26T20:14:30.003Z,9.27
2022-08-26T20:16:57.317Z,7.85
2022-08-26T20:19:42.788Z,8.70
2022-08-26T20:22:10.388Z,7.78
2022-08-26T20:24:37.200Z,11.48
2022-08-26T20:27:07.752Z,7.53
2022-08-26T20:29:35.946Z,8.73
2022-08-26T20:32:06.107Z,7.60
2022-08-26T20:34:33.057Z,9.10
2022-08-26T20:37:00.055Z,9.40
2022-08-26T20:39:29.576Z,8.50
2022-08-26T20:41:59.391Z,11.65
2022-08-26T20:44:26.345Z,10.38
2022-08-26T20:46:53.212Z,9.50
2022-08-26T20:49:19.945Z,9.80
2022-08-26T20:51:51.463Z,8.13
2022-08-26T20:54:22.976Z,9.07
2022-08-26T20:56:52.020Z,7.88
2022-08-26T20:59:21.088Z,6.03
2022-08-26T21:01:48.577Z,7.20
2022-08-26T21:04:18.693Z,6.35
2022-08-26T21:06:52.353Z,7.03
2022-08-26T21:09:22.402Z,8.32
2022-08-26T21:11:49.713Z,8.05
2022-08-26T21:14:17.440Z,7.53
2022-08-26T21:16:45.285Z,7.78
2022-08-26T21:19:15.152Z,6.72
2022-08-26T21:21:42.293Z,7.18
2022-08-26T21:24:09.299Z,7.85
2022-08-26T21:26:36.406Z,7.35
2022-08-26T21:29:04.149Z,8.73
2022-08-26T21:31:32.138Z,7.53
2022-08-26T21:33:59.369Z,7.68
2022-08-26T21:36:26.570Z,7.45
2022-08-26T21:38:56.134Z,6.72
2022-08-26T21:41:23.118Z,8.27
2022-08-26T21:43:51.540Z,7.43
2022-08-26T21:46:22.195Z,7.57
2022-08-26T21:48:58.341Z,8.48
2022-08-26T21:51:29.631Z,5.78
2022-08-26T21:53:57.771Z,7.35
2022-08-26T21:56:27.364Z,7.45
2022-08-26T21:58:55.772Z,7.70
2022-08-26T22:01:24.402Z,9.23
2022-08-26T22:03:52.690Z,7.63
2022-08-26T22:06:22.985Z,6.78
2022-08-26T22:08:50.061Z,7.18
2022-08-26T22:11:18.713Z,7.68
2022-08-26T22:13:46.775Z,6.75
2022-08-26T22:16:14.418Z,7.07
2022-08-26T22:18:43.864Z,7.60
2022-08-26T22:21:14.325Z,5.18
2022-08-26T22:23:41.439Z,6.20
2022-08-26T22:26:10.000Z,6.82
2022-08-26T22:28:37.452Z,7.40
2022-08-26T22:31:04.269Z,5.47
2022-08-26T22:33:30.999Z,6.55
2022-08-26T22:35:57.712Z,7.53
2022-08-26T22:38:24.829Z,7.70
2022-08-26T22:40:56.107Z,6.07
2022-08-26T22:43:28.867Z,8.98
2022-08-26T22:45:56.454Z,6.40
2022-08-26T22:48:25.081Z,7.18
2022-08-26T22:51:00.006Z,6.28
2022-08-26T22:53:27.490Z,7.78
2022-08-26T22:55:54.475Z,8.90
2022-08-26T22:58:28.032Z,6.68
2022-08-26T23:00:59.365Z,8.10
2022-08-26T23:03:27.006Z,8.00
2022-08-26T23:05:55.530Z,6.90
2022-08-26T23:08:23.469Z,5.53
2022-08-26T23:10:51.454Z,7.65
2022-08-26T23:13:19.872Z,6.45
2022-08-26T23:15:46.786Z,5.65
2022-08-26T23:18:15.295Z,7.13
2022-08-26T23:20:42.112Z,6.45
2022-08-26T23:23:09.482Z,6.40
2022-08-26T23:25:36.274Z,7.38
2022-08-26T23:28:03.529Z,6.80
2022-08-26T23:30:32.256Z,6.90
2022-08-26T23:32:59.276Z,5.78
2022-08-26T23:35:26.805Z,9.52
2022-08-26T23:37:53.783Z,6.63
2022-08-26T23:40:28.030Z,7.85
2022-08-26T23:42:56.291Z,9.25
2022-08-26T23:45:24.227Z,9.55
2022-08-26T23:47:51.196Z,8.02
2022-08-26T23:50:20.005Z,7.20
2022-08-26T23:53:05.749Z,7.72
2022-08-26T23:55:37.385Z,6.68
2022-08-26T23:58:05.157Z,8.50
